Time;durP1;ratioP1;P1;durP2;ratioP2;P2;SDS_P1;SDS_P2;PMS_P1;PMS_P2;Temp;Humidity;BMP_temperature;BMP_pressure;BME280_temperature;BME280_humidity;BME280_pressure;Samples;Min_cycle;Max_cycle;Signal;HPM_P1;HPM_P2
2020/12/02 00:03:34;;;;;;;62.60;21.52;;;;;;;-144.15;0.00;65763.66;10323408;28;20041;-62
2020/12/02 00:08:37;;;;;;;54.25;19.90;;;;;;;-144.15;0.00;65763.66;10323348;28;20082;-61
2020/12/02 00:13:38;;;;;;;79.88;20.33;;;;;;;-144.15;0.00;65763.66;10323171;28;20040;-62
2020/12/02 00:18:38;;;;;;;62.65;29.10;;;;;;;-144.15;0.00;65763.66;10322972;28;20037;-61
2020/12/02 00:23:37;;;;;;;70.90;17.30;;;;;;;-144.15;0.00;65763.66;10322725;28;20051;-61
2020/12/02 00:28:35;;;;;;;41.72;18.25;;;;;;;-144.15;0.00;65763.66;10323017;28;20084;-62
2020/12/02 00:33:33;;;;;;;50.75;19.23;;;;;;;-144.15;0.00;65763.66;10322244;28;20087;-61
2020/12/02 00:38:31;;;;;;;65.40;21.75;;;;;;;-144.15;0.00;65763.66;10322646;28;20067;-61
2020/12/02 00:43:30;;;;;;;40.05;16.90;;;;;;;-144.15;0.00;65763.66;10321934;28;20072;-62
2020/12/02 00:48:30;;;;;;;39.70;16.42;;;;;;;-144.15;0.00;65763.66;10322280;28;20055;-61
2020/12/02 00:53:31;;;;;;;39.22;19.58;;;;;;;-144.15;0.00;65763.66;10320567;28;20504;-62
2020/12/02 00:58:40;;;;;;;33.50;18.25;;;;;;;-144.15;0.00;65763.66;10319809;28;20059;-63
2020/12/02 01:03:38;;;;;;;37.47;21.17;;;;;;;-144.15;0.00;65763.66;10320378;28;20052;-62
2020/12/02 01:08:39;;;;;;;30.10;18.20;;;;;;;-144.15;0.00;65763.66;10320916;28;20039;-62
2020/12/02 01:13:39;;;;;;;34.90;20.38;;;;;;;-144.15;0.00;65763.66;10321225;28;20052;-62
2020/12/02 01:18:37;;;;;;;44.72;30.85;;;;;;;-144.15;0.00;65763.66;10320695;28;20068;-62
2020/12/02 01:23:36;;;;;;;23.73;15.18;;;;;;;-144.15;0.00;65763.66;10320647;28;20056;-63
2020/12/02 01:28:37;;;;;;;35.83;19.40;;;;;;;-144.15;0.00;65763.66;10320487;28;20048;-61
2020/12/02 01:33:35;;;;;;;28.55;16.30;;;;;;;-144.15;0.00;65763.66;10320549;28;20044;-62
2020/12/02 01:38:38;;;;;;;23.13;13.73;;;;;;;-144.15;0.00;65763.66;10319703;28;20509;-62
2020/12/02 01:43:35;;;;;;;30.02;17.15;;;;;;;-144.15;0.00;65763.66;10319892;28;20087;-62
2020/12/02 01:48:49;;;;;;;28.30;16.23;;;;;;;-144.15;0.00;65763.66;10318348;28;20055;-62
2020/12/02 01:53:55;;;;;;;35.50;18.90;;;;;;;-144.15;0.00;65763.66;10319687;28;20052;-62
2020/12/02 01:59:04;;;;;;;71.60;23.88;;;;;;;-144.15;0.00;65763.66;10318495;28;20068;-62
2020/12/02 02:04:03;;;;;;;43.70;18.23;;;;;;;-144.15;0.00;65763.66;10318996;28;20421;-62
2020/12/02 02:09:01;;;;;;;42.72;21.13;;;;;;;-144.15;0.00;65763.66;10318620;28;20072;-62
2020/12/02 02:14:22;;;;;;;46.10;19.67;;;;;;;-144.15;0.00;65763.66;10318715;28;20090;-64
2020/12/02 02:19:24;;;;;;;32.72;19.08;;;;;;;-144.15;0.00;65763.66;10318275;28;20032;-63
2020/12/02 02:24:22;;;;;;;46.80;20.58;;;;;;;-144.15;0.00;65763.66;10318182;28;20071;-63
2020/12/02 02:29:24;;;;;;;47.42;22.13;;;;;;;-144.15;0.00;65763.66;10317877;28;20081;-63
2020/12/02 02:34:23;;;;;;;61.15;27.52;;;;;;;-144.15;0.00;65763.66;10317703;28;20037;-63
2020/12/02 02:39:21;;;;;;;65.35;20.63;;;;;;;-144.15;0.00;65763.66;10317691;28;20068;-62
2020/12/02 02:44:19;;;;;;;43.38;20.25;;;;;;;-144.15;0.00;65763.66;10317351;28;20072;-63
2020/12/02 02:49:18;;;;;;;43.13;19.75;;;;;;;-144.15;0.00;65763.66;10317147;28;20076;-62
2020/12/02 02:54:16;;;;;;;50.05;22.40;;;;;;;-144.15;0.00;65763.66;10317797;28;20049;-62
2020/12/02 02:59:14;;;;;;;71.65;20.70;;;;;;;-144.15;0.00;65763.66;10316413;28;20060;-62
2020/12/02 03:04:12;;;;;;;51.05;22.77;;;;;;;-144.15;0.00;65763.66;10316902;28;20049;-62
2020/12/02 03:09:13;;;;;;;129.60;25.45;;;;;;;-144.15;0.00;65763.66;10316759;28;20064;-62
2020/12/02 03:14:11;;;;;;;97.63;22.38;;;;;;;-144.15;0.00;65763.66;10316984;28;20091;-63
2020/12/02 03:19:13;;;;;;;102.95;24.27;;;;;;;-144.15;0.00;65763.66;10316721;28;20037;-62
2020/12/02 03:24:12;;;;;;;64.55;22.08;;;;;;;-144.15;0.00;65763.66;10316764;28;20436;-62
2020/12/02 03:29:10;;;;;;;269.25;33.47;;;;;;;-144.15;0.00;65763.66;10321307;28;20478;-62
2020/12/02 03:34:12;;;;;;;92.32;23.80;;;;;;;-144.15;0.00;65763.66;10324682;28;20045;-62
2020/12/02 03:39:13;;;;;;;140.98;40.10;;;;;;;-144.15;0.00;65763.66;10324773;28;20044;-62
2020/12/02 03:44:11;;;;;;;87.75;27.17;;;;;;;-144.15;0.00;65763.66;10324471;28;20044;-63
2020/12/02 03:49:09;;;;;;;163.27;32.83;;;;;;;-144.15;0.00;65763.66;10324105;28;20523;-63
2020/12/02 03:54:08;;;;;;;81.35;23.33;;;;;;;-144.15;0.00;65763.66;10324175;28;20040;-62
2020/12/02 03:59:07;;;;;;;93.57;21.67;;;;;;;-144.15;0.00;65763.66;10323215;28;20045;-63
2020/12/02 04:04:04;;;;;;;125.30;25.00;;;;;;;-144.15;0.00;65763.66;10322492;28;20056;-62
2020/12/02 04:09:03;;;;;;;116.15;22.30;;;;;;;-144.15;0.00;65763.66;10323493;28;20083;-63
2020/12/02 04:14:00;;;;;;;80.05;25.65;;;;;;;-144.15;0.00;65763.66;10323024;28;20489;-63
2020/12/02 04:19:00;;;;;;;141.55;29.58;;;;;;;-144.15;0.00;65763.66;10322903;28;20494;-62
2020/12/02 04:23:58;;;;;;;110.43;34.92;;;;;;;-144.15;0.00;65763.66;10323085;28;20056;-62
2020/12/02 04:28:56;;;;;;;60.47;28.10;;;;;;;-144.15;0.00;65763.66;10321736;28;20505;-62
2020/12/02 04:33:54;;;;;;;45.45;21.40;;;;;;;-144.15;0.00;65763.66;10316585;28;20072;-62
2020/12/02 04:38:52;;;;;;;32.88;18.15;;;;;;;-144.15;0.00;65763.66;10315410;28;20083;-61
2020/12/02 04:43:54;;;;;;;42.28;20.77;;;;;;;-144.15;0.00;65763.66;10316740;28;20049;-62
2020/12/02 04:48:55;;;;;;;25.75;16.27;;;;;;;-144.15;0.00;65763.66;10320008;28;20075;-62
2020/12/02 04:53:58;;;;;;;23.90;15.82;;;;;;;-144.15;0.00;65763.66;10319884;28;20072;-63
2020/12/02 04:58:57;;;;;;;30.25;18.40;;;;;;;-144.15;0.00;65763.66;10320723;28;20049;-62
2020/12/02 05:04:00;;;;;;;31.02;20.08;;;;;;;-144.15;0.00;65763.66;10326689;28;20068;-60
2020/12/02 05:09:11;;;;;;;32.60;19.65;;;;;;;-144.15;0.00;65763.66;10350795;28;20060;-60
2020/12/02 05:14:15;;;;;;;62.03;26.17;;;;;;;-144.15;0.00;65763.66;10353286;28;20076;-59
2020/12/02 05:19:17;;;;;;;108.53;30.17;;;;;;;-144.15;0.00;65763.66;10320429;28;20095;-60
2020/12/02 05:24:19;;;;;;;110.82;38.08;;;;;;;-144.15;0.00;65763.66;10331986;28;20080;-61
2020/12/02 05:29:24;;;;;;;101.22;26.60;;;;;;;-144.15;0.00;65763.66;10319966;28;20047;-61
2020/12/02 05:34:31;;;;;;;102.00;34.83;;;;;;;-144.15;0.00;65763.66;10318977;28;20482;-60
2020/12/02 05:39:42;;;;;;;84.00;29.40;;;;;;;-144.15;0.00;65763.66;10319689;28;20079;-59
2020/12/02 05:44:42;;;;;;;95.85;36.03;;;;;;;-144.15;0.00;65763.66;10319348;28;20073;-59
2020/12/02 05:49:51;;;;;;;75.40;32.72;;;;;;;-144.15;0.00;65763.66;10318745;28;20513;-59
2020/12/02 05:54:55;;;;;;;158.73;49.45;;;;;;;-144.15;0.00;65763.66;10319028;28;20064;-59
2020/12/02 05:59:56;;;;;;;100.53;43.28;;;;;;;-144.15;0.00;65763.66;10328060;28;20083;-59
2020/12/02 06:04:55;;;;;;;64.45;28.13;;;;;;;-144.15;0.00;65763.66;10348567;28;20072;-59
2020/12/02 06:09:53;;;;;;;85.13;30.98;;;;;;;-144.15;0.00;65763.66;10318138;28;20466;-59
2020/12/02 06:14:51;;;;;;;114.18;28.77;;;;;;;-144.15;0.00;65763.66;10318109;28;20044;-59
2020/12/02 06:19:50;;;;;;;73.90;23.95;;;;;;;-144.15;0.00;65763.66;10328929;28;20535;-59
2020/12/02 06:24:48;;;;;;;104.88;37.42;;;;;;;-144.15;0.00;65763.66;10348580;28;20048;-60
2020/12/02 06:29:52;;;;;;;76.93;32.20;;;;;;;-144.15;0.00;65763.66;10317229;28;20075;-59
2020/12/02 06:34:52;;;;;;;97.35;33.58;;;;;;;-144.15;0.00;65763.66;10317412;28;20045;-60
2020/12/02 06:39:54;;;;;;;65.13;31.83;;;;;;;-144.15;0.00;65763.66;10317200;28;20071;-60
2020/12/02 06:45:12;;;;;;;95.75;43.10;;;;;;;-144.15;0.00;65763.66;10316789;28;20051;-60
2020/12/02 06:50:12;;;;;;;67.03;28.13;;;;;;;-144.15;0.00;65763.66;10317038;28;20076;-60
2020/12/02 06:55:21;;;;;;;65.75;38.67;;;;;;;-144.15;0.00;65763.66;10317278;28;20493;-60
2020/12/02 07:00:22;;;;;;;82.05;41.45;;;;;;;-144.15;0.00;65763.66;10328954;28;20080;-60
2020/12/02 07:05:25;;;;;;;114.40;46.10;;;;;;;-144.15;0.00;65763.66;10342344;28;20076;-60
2020/12/02 07:10:23;;;;;;;80.43;38.00;;;;;;;-144.15;0.00;65763.66;10316362;28;20099;-59
2020/12/02 07:15:23;;;;;;;67.70;33.42;;;;;;;-144.15;0.00;65763.66;10321097;28;20083;-58
2020/12/02 07:20:21;;;;;;;69.97;35.05;;;;;;;-144.15;0.00;65763.66;10328117;28;20522;-59
2020/12/02 07:25:21;;;;;;;72.63;38.38;;;;;;;-144.15;0.00;65763.66;10316236;28;20059;-59
2020/12/02 07:30:34;;;;;;;58.67;31.90;;;;;;;-144.15;0.00;65763.66;10324302;28;20535;-58
2020/12/02 07:35:32;;;;;;;48.42;28.42;;;;;;;-144.15;0.00;65763.66;10340871;28;20048;-59
2020/12/02 07:40:34;;;;;;;62.35;33.65;;;;;;;-144.15;0.00;65763.66;10314386;28;20536;-60
2020/12/02 07:45:34;;;;;;;99.18;48.70;;;;;;;-144.15;0.00;65763.66;10315805;28;20059;-60
2020/12/02 07:50:35;;;;;;;80.65;36.17;;;;;;;-144.15;0.00;65763.66;10315766;28;20071;-59
2020/12/02 07:55:40;;;;;;;55.33;32.55;;;;;;;-144.15;0.00;65763.66;10315504;28;20057;-59
2020/12/02 08:00:41;;;;;;;60.60;36.60;;;;;;;-144.15;0.00;65763.66;10314640;28;20057;-60
2020/12/02 08:05:49;;;;;;;50.20;29.65;;;;;;;-144.15;0.00;65763.66;10316014;28;20053;-60
2020/12/02 08:10:48;;;;;;;63.20;35.85;;;;;;;-144.15;0.00;65763.66;10337996;28;20088;-59
2020/12/02 08:15:51;;;;;;;44.92;25.08;;;;;;;-144.15;0.00;65763.66;10319795;28;20080;-60
2020/12/02 08:20:49;;;;;;;44.13;27.38;;;;;;;-144.15;0.00;65763.66;10330949;28;20108;-60
2020/12/02 08:25:55;;;;;;;59.22;34.00;;;;;;;-144.15;0.00;65763.66;10344706;28;20075;-59
2020/12/02 08:31:01;;;;;;;66.38;33.95;;;;;;;-144.15;0.00;65763.66;10322467;28;20080;-58
2020/12/02 08:36:05;;;;;;;72.45;38.60;;;;;;;-144.15;0.00;65763.66;10320891;28;20503;-59
2020/12/02 08:41:05;;;;;;;63.88;33.35;;;;;;;-144.15;0.00;65763.66;10347676;28;20047;-56
2020/12/02 08:46:13;;;;;;;54.92;32.40;;;;;;;-144.15;0.00;65763.66;10363192;28;20549;-59
2020/12/02 08:51:15;;;;;;;54.78;28.67;;;;;;;-144.15;0.00;65763.66;10339679;28;20076;-60
2020/12/02 08:56:25;;;;;;;52.53;30.80;;;;;;;-144.15;0.00;65763.66;10330611;28;20076;-60
2020/12/02 09:01:23;;;;;;;60.22;31.40;;;;;;;-144.15;0.00;65763.66;10320359;28;20068;-59
2020/12/02 09:06:22;;;;;;;86.57;44.45;;;;;;;-144.15;0.00;65763.66;10320219;28;20067;-60
2020/12/02 09:11:25;;;;;;;55.38;27.48;;;;;;;-144.15;0.00;65763.66;10321270;28;20084;-59
2020/12/02 09:16:26;;;;;;;50.30;29.10;;;;;;;-144.15;0.00;65763.66;10321321;28;20076;-60
2020/12/02 09:21:26;;;;;;;64.05;36.80;;;;;;;-144.15;0.00;65763.66;10320839;28;20052;-58
2020/12/02 09:26:27;;;;;;;59.20;38.78;;;;;;;-144.15;0.00;65763.66;10319745;28;20508;-60
2020/12/02 09:31:28;;;;;;;49.88;31.20;;;;;;;-144.15;0.00;65763.66;10340667;28;20079;-58
2020/12/02 09:36:27;;;;;;;45.45;26.10;;;;;;;-144.15;0.00;65763.66;10337495;28;20040;-56
2020/12/02 09:41:34;;;;;;;82.43;40.88;;;;;;;-144.15;0.00;65763.66;10318696;28;20072;-59
2020/12/02 09:46:34;;;;;;;151.02;65.45;;;;;;;-144.15;0.00;65763.66;10319866;28;20052;-60
2020/12/02 09:51:32;;;;;;;221.35;102.53;;;;;;;-144.15;0.00;65763.66;10319368;28;20536;-58
2020/12/02 09:56:41;;;;;;;55.38;33.22;;;;;;;-144.15;0.00;65763.66;10318062;28;20075;-60
2020/12/02 10:01:50;;;;;;;113.82;57.22;;;;;;;-144.15;0.00;65763.66;10318009;28;20056;-61
2020/12/02 10:07:01;;;;;;;44.33;26.70;;;;;;;-144.15;0.00;65763.66;10317493;28;20053;-60
2020/12/02 10:12:09;;;;;;;35.53;20.45;;;;;;;-144.15;0.00;65763.66;10317318;28;20072;-60
2020/12/02 10:17:18;;;;;;;60.53;39.17;;;;;;;-144.15;0.00;65763.66;10317563;28;20084;-60
2020/12/02 10:22:57;;;;;;;48.20;27.77;;;;;;;-144.15;0.00;65763.66;10318040;28;20072;-61
2020/12/02 10:28:21;;;;;;;47.90;28.48;;;;;;;-144.15;0.00;65763.66;10302404;28;20040;-61
2020/12/02 10:33:51;;;;;;;72.32;38.38;;;;;;;-144.15;0.00;65763.66;10348631;28;20489;-61
2020/12/02 10:38:52;;;;;;;84.80;48.65;;;;;;;-144.15;0.00;65763.66;10307006;28;20098;-59
2020/12/02 10:44:09;;;;;;;59.00;37.40;;;;;;;-144.15;0.00;65763.66;10316317;28;20040;-59
2020/12/02 10:49:17;;;;;;;42.03;27.23;;;;;;;-144.15;0.00;65763.66;10316109;28;20036;-61
2020/12/02 10:54:15;;;;;;;74.35;38.95;;;;;;;-144.15;0.00;65763.66;10351998;28;20075;-59
2020/12/02 10:59:14;;;;;;;76.00;47.97;;;;;;;-144.15;0.00;65763.66;10316337;28;20040;-59
2020/12/02 11:04:15;;;;;;;58.55;30.58;;;;;;;-144.15;0.00;65763.66;10315946;28;20075;-60
2020/12/02 11:09:29;;;;;;;54.03;32.70;;;;;;;-144.15;0.00;65763.66;10316376;28;20048;-60
2020/12/02 11:14:54;;;;;;;53.72;29.38;;;;;;;-144.15;0.00;65763.66;10316123;28;20087;-60
2020/12/02 11:19:58;;;;;;;38.55;23.30;;;;;;;-144.15;0.00;65763.66;10316714;28;20056;-58
2020/12/02 11:25:14;;;;;;;40.70;25.65;;;;;;;-144.15;0.00;65763.66;10310664;28;20064;-59
2020/12/02 11:30:26;;;;;;;60.72;34.75;;;;;;;-144.15;0.00;65763.66;10317536;28;20080;-59
2020/12/02 11:35:53;;;;;;;90.35;44.20;;;;;;;-144.15;0.00;65763.66;10333017;28;20083;-60
2020/12/02 11:41:01;;;;;;;51.33;29.33;;;;;;;-144.15;0.00;65763.66;10310537;28;20064;-59
2020/12/02 11:46:00;;;;;;;59.05;34.78;;;;;;;-144.15;0.00;65763.66;10315651;28;20580;-59
2020/12/02 11:51:06;;;;;;;61.60;33.55;;;;;;;-144.15;0.00;65763.66;10321353;28;20053;-60
2020/12/02 11:56:04;;;;;;;55.40;31.27;;;;;;;-144.15;0.00;65763.66;10324210;28;20083;-61
2020/12/02 12:01:13;;;;;;;54.58;31.13;;;;;;;-144.15;0.00;65763.66;10322632;28;20045;-59
2020/12/02 12:06:18;;;;;;;64.53;37.10;;;;;;;-144.15;0.00;65763.66;10323730;28;20052;-59
2020/12/02 12:11:26;;;;;;;63.15;34.33;;;;;;;-144.15;0.00;65763.66;10323674;28;20110;-60
2020/12/02 12:16:33;;;;;;;71.30;46.40;;;;;;;-144.15;0.00;65763.66;10323227;28;20052;-59
2020/12/02 12:21:35;;;;;;;80.03;45.05;;;;;;;-144.15;0.00;65763.66;10322871;28;20060;-60
2020/12/02 12:26:37;;;;;;;74.50;43.80;;;;;;;-144.15;0.00;65763.66;10323089;28;20079;-61
2020/12/02 12:31:44;;;;;;;51.45;28.20;;;;;;;-144.15;0.00;65763.66;10344221;28;20064;-60
2020/12/02 12:36:42;;;;;;;103.45;55.50;;;;;;;-144.15;0.00;65763.66;10336373;28;20048;-60
2020/12/02 12:41:44;;;;;;;123.00;59.25;;;;;;;-144.15;0.00;65763.66;10322324;28;20044;-61
2020/12/02 12:46:49;;;;;;;50.80;28.23;;;;;;;-144.15;0.00;65763.66;10321277;28;20076;-63
2020/12/02 12:51:47;;;;;;;;;;;;;;;-144.15;0.00;65763.66;10321245;28;20079;-61
2020/12/02 12:56:45;;;;;;;52.85;31.50;;;;;;;-144.15;0.00;65763.66;10320674;28;19959;-61
2020/12/02 13:01:47;;;;;;;122.60;48.55;;;;;;;-144.15;0.00;65763.66;10319950;28;20084;-60
2020/12/02 13:06:58;;;;;;;52.40;29.35;;;;;;;-144.15;0.00;65763.66;10320361;28;20043;-62
2020/12/02 13:12:05;;;;;;;67.95;35.40;;;;;;;-144.15;0.00;65763.66;10320440;28;20076;-60
2020/12/02 13:17:10;;;;;;;61.25;33.65;;;;;;;-144.15;0.00;65763.66;10320686;28;20111;-60
2020/12/02 13:22:18;;;;;;;53.80;31.98;;;;;;;-144.15;0.00;65763.66;10320042;28;20075;-60
2020/12/02 13:27:25;;;;;;;62.88;34.63;;;;;;;-144.15;0.00;65763.66;10319755;28;20041;-59
2020/12/02 13:32:30;;;;;;;65.88;36.33;;;;;;;-144.15;0.00;65763.66;10348176;28;20076;-59
2020/12/02 13:37:28;;;;;;;123.23;63.53;;;;;;;-144.15;0.00;65763.66;10327961;28;20044;-58
2020/12/02 13:42:27;;;;;;;65.70;35.60;;;;;;;-144.15;0.00;65763.66;10318924;28;20410;-59
2020/12/02 13:47:26;;;;;;;53.78;31.00;;;;;;;-144.15;0.00;65763.66;10318743;28;20040;-58
2020/12/02 13:52:29;;;;;;;57.75;33.17;;;;;;;-144.15;0.00;65763.66;10318496;28;20091;-60
2020/12/02 13:57:36;;;;;;;76.18;39.65;;;;;;;-144.15;0.00;65763.66;10347573;28;20049;-60
2020/12/02 14:02:54;;;;;;;97.95;60.33;;;;;;;-144.15;0.00;65763.66;10325827;28;20555;-60
2020/12/02 14:07:54;;;;;;;66.03;38.15;;;;;;;-144.15;0.00;65763.66;10317973;28;20051;-60
2020/12/02 14:12:53;;;;;;;84.30;49.88;;;;;;;-144.15;0.00;65763.66;10317348;28;20071;-59
2020/12/02 14:17:52;;;;;;;82.03;48.67;;;;;;;-144.15;0.00;65763.66;10317592;28;20453;-60
2020/12/02 14:22:50;;;;;;;87.65;54.15;;;;;;;-144.15;0.00;65763.66;10353268;28;20097;-59
2020/12/02 14:27:50;;;;;;;95.15;59.20;;;;;;;-144.15;0.00;65763.66;10323389;28;20040;-60
2020/12/02 14:32:49;;;;;;;197.00;104.95;;;;;;;-144.15;0.00;65763.66;10348666;28;20080;-59
2020/12/02 14:37:54;;;;;;;105.47;57.67;;;;;;;-144.15;0.00;65763.66;10322509;28;20080;-59
2020/12/02 14:42:55;;;;;;;142.23;77.00;;;;;;;-144.15;0.00;65763.66;10316543;28;20037;-59
2020/12/02 14:47:53;;;;;;;232.40;125.88;;;;;;;-144.15;0.00;65763.66;10316574;28;20075;-59
2020/12/02 14:52:51;;;;;;;141.27;77.80;;;;;;;-144.15;0.00;65763.66;10316468;28;20075;-59
2020/12/02 14:58:03;;;;;;;110.18;63.15;;;;;;;-144.15;0.00;65763.66;10316031;28;20575;-59
2020/12/02 15:03:01;;;;;;;119.05;67.28;;;;;;;-144.15;0.00;65763.66;10316422;28;20048;-59
2020/12/02 15:08:28;;;;;;;132.45;75.18;;;;;;;-144.15;0.00;65763.66;10316086;28;20067;-60
2020/12/02 15:13:26;;;;;;;112.05;58.78;;;;;;;-144.15;0.00;65763.66;10316564;28;20080;-60
2020/12/02 15:18:24;;;;;;;128.57;75.20;;;;;;;-144.15;0.00;65763.66;10315854;28;20064;-60
2020/12/02 15:23:25;;;;;;;102.35;62.00;;;;;;;-144.15;0.00;65763.66;10315208;28;20044;-60
2020/12/02 15:28:26;;;;;;;124.90;76.95;;;;;;;-144.15;0.00;65763.66;10316069;28;20506;-60
2020/12/02 15:33:27;;;;;;;136.27;76.75;;;;;;;-144.15;0.00;65763.66;10352838;28;20087;-60
2020/12/02 15:38:35;;;;;;;131.10;80.85;;;;;;;-144.15;0.00;65763.66;10315789;28;20068;-60
2020/12/02 15:43:47;;;;;;;123.82;65.97;;;;;;;-144.15;0.00;65763.66;10315612;28;20076;-59
2020/12/02 15:48:47;;;;;;;104.70;66.72;;;;;;;-144.15;0.00;65763.66;10315435;28;20509;-60
2020/12/02 15:53:50;;;;;;;176.15;99.57;;;;;;;-144.15;0.00;65763.66;10315529;28;20127;-59
2020/12/02 15:59:11;;;;;;;113.65;65.97;;;;;;;-144.15;0.00;65763.66;10314475;28;20048;-59
2020/12/02 16:04:15;;;;;;;84.13;48.40;;;;;;;-144.15;0.00;65763.66;10315090;28;20085;-59
2020/12/02 16:09:16;;;;;;;72.80;42.38;;;;;;;-144.15;0.00;65763.66;10315073;28;20064;-59
2020/12/02 16:14:17;;;;;;;95.32;54.10;;;;;;;-144.15;0.00;65763.66;10315443;28;20076;-59
2020/12/02 16:19:15;;;;;;;90.18;52.03;;;;;;;-144.15;0.00;65763.66;10314885;28;20040;-58
2020/12/02 16:24:14;;;;;;;97.22;58.33;;;;;;;-144.15;0.00;65763.66;10314996;28;20048;-59
2020/12/02 16:29:12;;;;;;;140.93;80.00;;;;;;;-144.15;0.00;65763.66;10315720;28;20048;-59
2020/12/02 16:34:09;;;;;;;155.90;87.85;;;;;;;-144.15;0.00;65763.66;10345749;28;20086;-59
2020/12/02 16:39:11;;;;;;;145.88;85.15;;;;;;;-144.15;0.00;65763.66;10319484;28;20075;-59
2020/12/02 16:44:20;;;;;;;157.23;92.15;;;;;;;-144.15;0.00;65763.66;10319598;28;20049;-59
2020/12/02 16:49:34;;;;;;;186.05;108.03;;;;;;;-144.15;0.00;65763.66;10319502;28;20082;-60
2020/12/02 16:54:58;;;;;;;204.00;114.13;;;;;;;-144.15;0.00;65763.66;10319571;28;20076;-59
2020/12/02 17:00:07;;;;;;;150.13;90.18;;;;;;;-144.15;0.00;65763.66;10318818;28;20083;-59
2020/12/02 17:05:09;;;;;;;179.07;101.20;;;;;;;-144.15;0.00;65763.66;10319401;28;20107;-59
2020/12/02 17:10:10;;;;;;;168.05;101.10;;;;;;;-144.15;0.00;65763.66;10319457;28;20063;-60
2020/12/02 17:15:24;;;;;;;116.72;73.53;;;;;;;-144.15;0.00;65763.66;10318934;28;20072;-60
2020/12/02 17:20:31;;;;;;;186.05;103.25;;;;;;;-144.15;0.00;65763.66;10319195;28;20055;-60
2020/12/02 17:25:40;;;;;;;516.15;351.67;;;;;;;-144.15;0.00;65763.66;10318617;28;20048;-58
2020/12/02 17:30:59;;;;;;;134.63;77.75;;;;;;;-144.15;0.00;65763.66;10332264;28;20409;-59
2020/12/02 17:36:09;;;;;;;188.85;112.95;;;;;;;-144.15;0.00;65763.66;10340187;28;20559;-60
2020/12/02 17:41:19;;;;;;;263.55;165.10;;;;;;;-144.15;0.00;65763.66;10319777;28;20056;-60
2020/12/02 17:46:25;;;;;;;186.43;111.45;;;;;;;-144.15;0.00;65763.66;10319236;28;20055;-61
2020/12/02 17:51:36;;;;;;;188.45;118.22;;;;;;;-144.15;0.00;65763.66;10318349;28;20422;-60
2020/12/02 17:56:36;;;;;;;206.95;114.90;;;;;;;-144.15;0.00;65763.66;10319350;28;20080;-60
2020/12/02 18:01:52;;;;;;;265.80;141.15;;;;;;;-144.15;0.00;65763.66;10317825;28;20084;-60
2020/12/02 18:07:01;;;;;;;199.57;112.15;;;;;;;-144.15;0.00;65763.66;10318148;28;20041;-61
2020/12/02 18:12:19;;;;;;;132.35;82.32;;;;;;;-144.15;0.00;65763.66;10318270;28;20045;-61
2020/12/02 18:17:30;;;;;;;157.48;96.43;;;;;;;-144.15;0.00;65763.66;10316842;28;20087;-59
2020/12/02 18:22:43;;;;;;;410.50;214.45;;;;;;;-144.15;0.00;65763.66;10316010;28;20388;-58
2020/12/02 18:27:54;;;;;;;128.10;78.50;;;;;;;-144.15;0.00;65763.66;10317926;28;20051;-60
2020/12/02 18:33:08;;;;;;;142.48;85.20;;;;;;;-144.15;0.00;65763.66;10349374;28;20075;-60
2020/12/02 18:38:14;;;;;;;109.35;65.78;;;;;;;-144.15;0.00;65763.66;10355293;28;20067;-60
2020/12/02 18:43:44;;;;;;;115.15;73.43;;;;;;;-144.15;0.00;65763.66;10357847;28;20079;-58
2020/12/02 18:48:46;;;;;;;195.80;115.55;;;;;;;-144.15;0.00;65763.66;10315921;28;20083;-60
2020/12/02 18:53:43;;;;;;;115.85;77.13;;;;;;;-144.15;0.00;65763.66;10316824;28;20079;-60
2020/12/02 18:58:48;;;;;;;115.93;70.43;;;;;;;-144.15;0.00;65763.66;10315739;28;20068;-59
2020/12/02 19:03:49;;;;;;;114.35;72.85;;;;;;;-144.15;0.00;65763.66;10317383;28;20040;-59
2020/12/02 19:08:46;;;;;;;124.22;76.30;;;;;;;-144.15;0.00;65763.66;10316736;28;20067;-59
2020/12/02 19:13:54;;;;;;;118.43;68.70;;;;;;;-144.15;0.00;65763.66;10316700;28;20083;-59
2020/12/02 19:19:10;;;;;;;155.88;87.07;;;;;;;-144.15;0.00;65763.66;10315938;28;20072;-57
2020/12/02 19:24:22;;;;;;;148.38;83.30;;;;;;;-144.15;0.00;65763.66;10316638;28;20513;-59
2020/12/02 19:29:42;;;;;;;168.10;98.28;;;;;;;-144.15;0.00;65763.66;10316504;28;20052;-59
2020/12/02 19:34:56;;;;;;;119.18;75.63;;;;;;;-144.15;0.00;65763.66;10316428;28;20083;-60
2020/12/02 19:40:04;;;;;;;128.48;73.82;;;;;;;-144.15;0.00;65763.66;10316616;28;20064;-60
2020/12/02 19:45:11;;;;;;;98.07;63.33;;;;;;;-144.15;0.00;65763.66;10315708;28;20087;-59
2020/12/02 19:50:13;;;;;;;84.28;54.58;;;;;;;-144.15;0.00;65763.66;10316256;28;20049;-60
2020/12/02 19:55:11;;;;;;;88.90;50.63;;;;;;;-144.15;0.00;65763.66;10316208;28;20087;-60
2020/12/02 20:00:11;;;;;;;66.97;43.75;;;;;;;-144.15;0.00;65763.66;10315203;28;20059;-60
2020/12/02 20:05:27;;;;;;;70.95;42.20;;;;;;;-144.15;0.00;65763.66;10316280;28;20072;-60
2020/12/02 20:10:32;;;;;;;60.03;36.42;;;;;;;-144.15;0.00;65763.66;10318826;28;20036;-57
2020/12/02 20:15:35;;;;;;;51.23;29.50;;;;;;;-144.15;0.00;65763.66;10322726;28;20083;-59
2020/12/02 20:20:40;;;;;;;62.60;33.80;;;;;;;-144.15;0.00;65763.66;10323486;28;20068;-60
2020/12/02 20:25:44;;;;;;;73.93;34.65;;;;;;;-144.15;0.00;65763.66;10323446;28;20048;-60
2020/12/02 20:30:45;;;;;;;77.03;44.33;;;;;;;-144.15;0.00;65763.66;10322228;28;20044;-59
2020/12/02 20:35:45;;;;;;;65.70;36.58;;;;;;;-144.15;0.00;65763.66;10322911;28;20076;-59
2020/12/02 20:40:44;;;;;;;69.82;43.33;;;;;;;-144.15;0.00;65763.66;10322591;28;20044;-60
2020/12/02 20:45:41;;;;;;;66.43;39.83;;;;;;;-144.15;0.00;65763.66;10322299;28;20095;-57
2020/12/02 20:50:55;;;;;;;87.95;53.15;;;;;;;-144.15;0.00;65763.66;10321394;28;20102;-59
2020/12/02 20:55:56;;;;;;;76.38;42.85;;;;;;;-144.15;0.00;65763.66;10322338;28;20110;-56
2020/12/02 21:00:54;;;;;;;79.15;46.92;;;;;;;-144.15;0.00;65763.66;10321047;28;20493;-58
2020/12/02 21:05:54;;;;;;;72.15;39.83;;;;;;;-144.15;0.00;65763.66;10320887;28;20106;-59
2020/12/02 21:10:52;;;;;;;72.15;40.50;;;;;;;-144.15;0.00;65763.66;10321783;28;20079;-60
2020/12/02 21:15:57;;;;;;;65.60;36.10;;;;;;;-144.15;0.00;65763.66;10321412;28;20470;-59
2020/12/02 21:21:02;;;;;;;;;;;;;;;-144.15;0.00;65763.66;10319815;28;20044;-58
2020/12/02 21:26:11;;;;;;;60.90;37.17;;;;;;;-144.15;0.00;65763.66;10321218;28;19963;-59
2020/12/02 21:31:12;;;;;;;63.97;40.20;;;;;;;-144.15;0.00;65763.66;10321109;28;20510;-60
2020/12/02 21:36:23;;;;;;;68.00;43.75;;;;;;;-144.15;0.00;65763.66;10320609;28;20533;-60
2020/12/02 21:41:30;;;;;;;62.95;38.50;;;;;;;-144.15;0.00;65763.66;10320617;28;20044;-60
2020/12/02 21:46:48;;;;;;;52.03;31.65;;;;;;;-144.15;0.00;65763.66;10320505;28;20514;-60
2020/12/02 21:52:07;;;;;;;54.58;29.77;;;;;;;-144.15;0.00;65763.66;10319232;28;20044;-61
2020/12/02 21:57:06;;;;;;;68.40;37.45;;;;;;;-144.15;0.00;65763.66;10319060;28;20076;-62
2020/12/02 22:02:32;;;;;;;70.72;41.15;;;;;;;-144.15;0.00;65763.66;10319264;28;20080;-60
2020/12/02 22:07:35;;;;;;;51.25;30.92;;;;;;;-144.15;0.00;65763.66;10318502;28;20087;-60
2020/12/02 22:12:38;;;;;;;62.80;40.95;;;;;;;-144.15;0.00;65763.66;10318422;28;20045;-59
2020/12/02 22:17:42;;;;;;;54.83;34.50;;;;;;;-144.15;0.00;65763.66;10318762;28;20505;-59
2020/12/02 22:22:52;;;;;;;52.38;32.33;;;;;;;-144.15;0.00;65763.66;10317907;28;20060;-57
2020/12/02 22:28:07;;;;;;;49.38;29.65;;;;;;;-144.15;0.00;65763.66;10317995;28;20052;-60
2020/12/02 22:33:37;;;;;;;60.13;32.70;;;;;;;-144.15;0.00;65763.66;10317978;28;20433;-59
2020/12/02 22:38:45;;;;;;;44.20;28.08;;;;;;;-144.15;0.00;65763.66;10314537;28;20119;-61
2020/12/02 22:43:57;;;;;;;52.03;29.73;;;;;;;-144.15;0.00;65763.66;10317619;28;20045;-59